Time;durP1;ratioP1;P1;durP2;ratioP2;P2;SDS_P1;SDS_P2;PMS_P1;PMS_P2;Temp;Humidity;BMP_temperature;BMP_pressure;BME280_temperature;BME280_humidity;BME280_pressure;Samples;Min_cycle;Max_cycle;Signal;HPM_P1;HPM_P2
2022/01/09 00:00:09;;;;;;;15.20;9.57;;;;;;;-1.62;84.68;98223.94;5093608;28;20062;-93
2022/01/09 00:02:35;;;;;;;16.38;10.15;;;;;;;-1.61;85.51;98240.44;5095770;28;20036;-93
2022/01/09 00:05:01;;;;;;;13.68;9.10;;;;;;;-1.66;85.12;98228.22;5086375;28;20124;-93
2022/01/09 00:07:27;;;;;;;17.42;9.45;;;;;;;-1.69;85.06;98216.91;5094959;28;20401;-93
2022/01/09 00:09:56;;;;;;;14.40;8.48;;;;;;;-1.78;85.20;98198.53;5095489;28;20048;-93
2022/01/09 00:12:23;;;;;;;13.80;8.40;;;;;;;-1.42;84.21;98242.41;5091836;28;20044;-90
2022/01/09 00:14:53;;;;;;;16.55;8.43;;;;;;;-1.56;83.74;98210.09;5086286;28;20044;-94
2022/01/09 00:24:04;;;;;;;14.02;7.28;;;;;;;-1.63;83.20;98163.94;5091019;28;20036;-94
2022/01/09 00:26:30;;;;;;;11.20;7.18;;;;;;;-1.39;83.29;98192.03;5095005;28;20037;-92
2022/01/09 00:28:57;;;;;;;14.25;7.65;;;;;;;-1.63;82.76;98143.97;5082110;28;20556;-92
2022/01/09 00:34:44;;;;;;;13.57;8.48;;;;;;;-1.64;83.54;98157.88;5094715;28;20035;-92
2022/01/09 00:37:10;;;;;;;13.02;8.27;;;;;;;-1.62;82.51;98153.53;5086589;28;20127;-92
2022/01/09 00:39:38;;;;;;;11.43;7.65;;;;;;;-1.29;81.61;98189.53;5094650;28;20041;-93
2022/01/09 00:42:07;;;;;;;11.25;7.10;;;;;;;-1.20;81.65;98185.28;5095780;28;20040;-92
2022/01/09 00:44:34;;;;;;;11.13;7.50;;;;;;;-1.42;81.11;98129.41;5094773;28;20134;-93
2022/01/09 00:50:21;;;;;;;14.20;6.75;;;;;;;-1.53;82.57;98138.00;5078224;28;20040;-93
2022/01/09 00:52:47;;;;;;;10.88;6.72;;;;;;;-1.45;83.33;98146.78;5078489;28;20516;-94
2022/01/09 00:55:15;;;;;;;13.18;7.68;;;;;;;-1.33;81.50;98140.81;5078142;28;20041;-93
2022/01/09 00:57:41;;;;;;;14.15;8.00;;;;;;;-1.50;81.80;98118.91;5078760;28;20041;-93
2022/01/09 01:06:51;;;;;;;12.32;8.15;;;;;;;-1.53;84.11;98156.25;5098076;28;20032;-93
2022/01/09 01:09:17;;;;;;;15.85;10.25;;;;;;;-1.34;84.29;98195.59;5098446;28;20490;-93
2022/01/09 01:11:45;;;;;;;17.23;10.57;;;;;;;-1.26;84.14;98201.72;5098874;28;20044;-94
2022/01/09 01:14:11;;;;;;;15.98;9.10;;;;;;;-1.32;83.72;98173.00;5097284;28;20044;-92
2022/01/09 01:20:01;;;;;;;16.63;9.07;;;;;;;-1.32;83.32;98159.97;5093762;28;20024;-93
2022/01/09 01:22:28;;;;;;;15.03;8.97;;;;;;;-1.34;83.78;98172.09;5092017;28;20040;-93
2022/01/09 01:24:56;;;;;;;15.07;8.30;;;;;;;-1.23;84.77;98186.13;5098188;28;20047;-93
2022/01/09 01:27:23;;;;;;;16.30;8.75;;;;;;;-1.34;85.16;98185.16;5093557;28;20078;-93
2022/01/09 01:29:50;;;;;;;14.23;9.15;;;;;;;-1.44;84.53;98173.72;5077949;28;20048;-93
2022/01/09 01:35:38;;;;;;;13.85;8.02;;;;;;;-1.68;86.58;98166.50;5077590;28;20046;-94
2022/01/09 01:38:04;;;;;;;15.10;9.63;;;;;;;-1.70;86.85;98178.66;5077283;28;20037;-93
2022/01/09 01:40:31;;;;;;;17.30;9.77;;;;;;;-1.90;86.87;98152.34;5077898;28;20041;-94
2022/01/09 01:42:59;;;;;;;17.92;9.02;;;;;;;-1.69;87.55;98202.13;5079117;28;20135;-94
2022/01/09 01:45:25;;;;;;;14.65;8.68;;;;;;;-1.98;87.90;98159.19;5097538;28;20131;-92
2022/01/09 01:47:51;;;;;;;15.02;9.98;;;;;;;-1.77;88.78;98200.28;5097089;28;20559;-93
2022/01/09 01:50:17;;;;;;;15.05;9.10;;;;;;;-2.07;88.67;98159.94;5097556;28;20046;-94
2022/01/09 01:52:47;;;;;;;16.73;9.98;;;;;;;-2.09;88.85;98154.69;5097689;28;20048;-94
2022/01/09 01:55:15;;;;;;;15.27;9.32;;;;;;;-1.91;88.70;98185.34;5097461;28;20045;-93
2022/01/09 01:57:43;;;;;;;17.63;10.32;;;;;;;-2.15;89.32;98144.19;5096968;28;20040;-94
2022/01/09 02:06:56;;;;;;;15.27;8.57;;;;;;;-1.75;88.13;98113.44;5096868;28;20035;-92
2022/01/09 02:09:24;;;;;;;18.10;9.57;;;;;;;-1.36;85.56;98151.22;5087582;28;20392;-93
2022/01/09 02:11:51;;;;;;;18.48;11.43;;;;;;;-1.76;86.36;98102.97;5093313;28;20521;-93
2022/01/09 02:14:17;;;;;;;17.60;10.60;;;;;;;-1.71;87.03;98128.25;5097067;28;20059;-92
2022/01/09 02:20:08;;;;;;;14.27;9.15;;;;;;;-1.53;86.14;98093.66;5096824;28;20032;-93
2022/01/09 02:22:35;;;;;;;15.10;8.80;;;;;;;-1.42;85.60;98085.09;5091204;28;20048;-93
2022/01/09 02:25:00;;;;;;;18.10;9.65;;;;;;;-1.66;85.87;98058.78;5076632;28;20044;-93
2022/01/09 02:27:27;;;;;;;16.23;8.98;;;;;;;-1.83;86.35;98046.44;5089606;28;20037;-93
2022/01/09 02:29:53;;;;;;;17.17;10.32;;;;;;;-1.97;86.72;98052.38;5085278;28;20040;-93
2022/01/09 02:35:43;;;;;;;17.48;9.90;;;;;;;-1.94;87.49;98061.97;5089303;28;20024;-92
2022/01/09 02:38:09;;;;;;;13.32;8.18;;;;;;;-2.00;87.64;98044.53;5076880;28;20041;-93
2022/01/09 02:40:35;;;;;;;12.48;8.50;;;;;;;-2.03;86.90;98049.72;5076650;28;20524;-93
2022/01/09 02:43:03;;;;;;;13.45;7.88;;;;;;;-1.97;87.47;98070.63;5091349;28;20135;-93
2022/01/09 02:45:29;;;;;;;14.10;9.02;;;;;;;-1.89;87.55;98074.19;5083220;28;20052;-94
2022/01/09 02:47:58;;;;;;;18.88;9.63;;;;;;;-2.03;87.13;98036.69;5076285;28;20045;-95
2022/01/09 02:53:15;;;;;;;12.60;8.48;;;;;;;-1.90;86.44;98048.13;5073333;28;20376;-94
2022/01/09 02:55:41;;;;;;;11.65;7.47;;;;;;;-1.87;86.31;98009.91;5072392;28;20045;-94
2022/01/09 02:58:07;;;;;;;13.25;8.73;;;;;;;-1.80;85.70;98012.59;5072667;28;20037;-94
2022/01/09 03:04:31;;;;;;;13.13;8.43;;;;;;;-1.52;84.74;98042.38;5072199;28;20493;-92
2022/01/09 03:06:57;;;;;;;13.73;8.85;;;;;;;-1.63;84.50;98010.13;5072469;28;20036;-94
2022/01/09 03:09:24;;;;;;;15.18;9.13;;;;;;;-1.59;84.39;98004.09;5072056;28;20090;-93
2022/01/09 03:11:50;;;;;;;17.13;9.50;;;;;;;-1.44;84.09;98022.47;5072441;28;20136;-93
2022/01/09 03:14:16;;;;;;;21.88;11.27;;;;;;;-1.52;83.39;98000.69;5072257;28;20041;-93
2022/01/09 03:20:07;;;;;;;16.92;10.20;;;;;;;-1.42;83.01;97996.44;5052137;28;20079;-92
2022/01/09 03:22:33;;;;;;;18.73;10.35;;;;;;;-1.34;83.54;98020.84;5058510;28;20170;-94
2022/01/09 03:25:02;;;;;;;19.60;11.35;;;;;;;-1.33;84.14;98030.41;5072154;28;20033;-94
2022/01/09 03:27:28;;;;;;;19.45;11.35;;;;;;;-1.41;84.84;98038.16;5071787;28;20076;-93
2022/01/09 03:29:54;;;;;;;16.05;10.35;;;;;;;-1.61;85.14;98004.06;5071641;28;20067;-92
2022/01/09 03:35:42;;;;;;;19.23;11.88;;;;;;;-1.56;86.30;98031.09;5071731;28;20029;-93
2022/01/09 03:38:08;;;;;;;23.00;12.88;;;;;;;-1.63;86.57;98012.75;5071374;28;20041;-94
2022/01/09 03:40:35;;;;;;;17.67;11.68;;;;;;;-1.67;86.70;98002.31;5071669;28;20037;-93
2022/01/09 03:43:01;;;;;;;19.48;12.20;;;;;;;-1.59;87.05;98023.22;5071401;28;20552;-92
2022/01/09 03:49:32;;;;;;;24.27;14.27;;;;;;;-1.32;85.90;98012.16;5071485;28;20036;-94
2022/01/09 03:51:59;;;;;;;24.40;14.15;;;;;;;-1.42;85.69;97978.16;5071480;28;20041;-92
2022/01/09 03:54:25;;;;;;;25.05;14.18;;;;;;;-1.22;84.84;97984.38;5071546;28;20040;-93
2022/01/09 03:56:53;;;;;;;23.73;14.18;;;;;;;-1.06;84.45;97981.03;5071335;28;20132;-93
2022/01/09 03:59:19;;;;;;;22.00;14.20;;;;;;;-1.04;83.02;97953.22;5071436;28;20041;-94
2022/01/09 04:05:07;;;;;;;23.10;14.18;;;;;;;-0.93;82.70;97926.28;5057942;28;20029;-94
2022/01/09 04:07:33;;;;;;;22.42;14.15;;;;;;;-0.73;82.06;97952.50;5057385;28;20063;-94
2022/01/09 04:09:59;;;;;;;24.13;13.18;;;;;;;-0.91;82.31;97922.84;5058287;28;20047;-93
2022/01/09 04:12:36;;;;;;;20.80;13.00;;;;;;;-1.07;82.24;97900.13;5058307;28;20045;-93
2022/01/09 04:15:06;;;;;;;22.98;13.93;;;;;;;-1.04;83.59;97911.47;5057341;28;20041;-92
2022/01/09 04:20:20;;;;;;;22.02;12.38;;;;;;;-1.34;85.09;97896.53;5115442;27;20381;-94
2022/01/09 04:22:47;;;;;;;17.90;11.70;;;;;;;-1.27;85.41;97919.16;5113498;28;20059;-92
2022/01/09 04:25:13;;;;;;;18.80;12.80;;;;;;;-1.47;86.50;97908.59;5113361;28;20135;-93
2022/01/09 04:27:39;;;;;;;23.52;13.50;;;;;;;-1.41;86.09;97928.66;5113542;28;20155;-93
2022/01/09 04:36:51;;;;;;;21.10;12.65;;;;;;;-1.47;86.49;97919.03;5113003;28;20023;-94
2022/01/09 04:39:17;;;;;;;22.27;14.68;;;;;;;-1.63;85.81;97901.53;5112899;28;20049;-94
2022/01/09 04:41:42;;;;;;;25.70;14.55;;;;;;;-1.71;86.54;97872.81;5112237;28;20036;-93
2022/01/09 04:44:15;;;;;;;25.98;14.32;;;;;;;-1.74;86.28;97854.53;5112889;28;20047;-94
2022/01/09 04:46:48;;;;;;;20.65;13.40;;;;;;;-1.59;86.21;97877.22;5112831;28;20043;-92
2022/01/09 04:49:14;;;;;;;18.27;12.65;;;;;;;-1.51;85.94;97885.09;5113218;28;20069;-93
2022/01/09 04:51:41;;;;;;;25.13;14.40;;;;;;;-1.45;85.52;97879.94;5113441;28;20078;-92
2022/01/09 04:54:09;;;;;;;25.15;14.13;;;;;;;-1.51;86.17;97862.50;5113015;28;20503;-93
2022/01/09 04:56:35;;;;;;;23.75;14.00;;;;;;;-1.53;86.31;97832.94;5112312;28;20040;-93
2022/01/09 04:59:00;;;;;;;21.73;14.18;;;;;;;-1.58;86.26;97825.94;5112422;28;20077;-94
2022/01/09 05:04:49;;;;;;;25.15;13.15;;;;;;;-1.31;86.18;97825.25;5112504;28;20032;-94
2022/01/09 05:07:15;;;;;;;22.05;14.00;;;;;;;-1.28;85.78;97817.41;5112292;28;20370;-93
2022/01/09 05:09:43;;;;;;;22.80;14.23;;;;;;;-1.24;85.60;97816.56;5112042;28;20047;-93
2022/01/09 05:12:09;;;;;;;23.45;14.45;;;;;;;-1.00;85.24;97826.22;5112079;28;20048;-92
2022/01/09 05:14:36;;;;;;;25.88;13.98;;;;;;;-1.03;84.74;97818.41;5112328;28;20485;-93
2022/01/09 05:20:24;;;;;;;21.45;14.07;;;;;;;-0.86;82.37;97827.16;5109867;28;20084;-93
2022/01/09 05:22:50;;;;;;;23.38;14.07;;;;;;;-1.00;82.73;97802.75;5112828;28;20044;-93
2022/01/09 05:25:18;;;;;;;19.13;13.68;;;;;;;-0.99;82.64;97811.47;5112299;28;20057;-95
2022/01/09 05:27:45;;;;;;;19.60;12.00;;;;;;;-1.08;82.93;97804.47;5111503;28;20040;-94
2022/01/09 05:33:33;;;;;;;23.27;14.23;;;;;;;-1.15;83.14;97800.97;5098505;28;20358;-93
2022/01/09 05:36:00;;;;;;;20.38;13.32;;;;;;;-1.20;83.50;97805.28;5098499;28;20051;-92
2022/01/09 05:38:26;;;;;;;23.27;15.20;;;;;;;-1.13;84.42;97827.94;5097857;28;20044;-94
2022/01/09 05:40:54;;;;;;;25.83;15.73;;;;;;;-1.35;84.10;97798.25;5098440;28;20120;-94
2022/01/09 05:43:20;;;;;;;26.58;15.27;;;;;;;-1.34;84.36;97770.47;5097980;28;20044;-92
2022/01/09 05:49:33;;;;;;;22.33;13.90;;;;;;;-0.92;83.51;97792.34;5095475;28;20389;-93
2022/01/09 05:52:00;;;;;;;23.73;14.57;;;;;;;-1.09;83.40;97759.22;5093619;28;20101;-94
2022/01/09 05:54:27;;;;;;;23.95;13.18;;;;;;;-1.05;83.37;97762.72;5097897;28;20044;-94
2022/01/09 05:56:56;;;;;;;22.77;14.82;;;;;;;-1.10;83.63;97762.72;5098782;28;20063;-94
2022/01/09 05:59:21;;;;;;;22.55;13.02;;;;;;;-0.99;83.33;97769.72;5097643;28;20042;-93
2022/01/09 06:05:09;;;;;;;23.63;15.25;;;;;;;-0.90;82.84;97765.38;5078198;28;20033;-94
2022/01/09 06:07:38;;;;;;;22.77;14.77;;;;;;;-0.98;82.71;97732.31;5078432;28;20502;-93
2022/01/09 06:10:06;;;;;;;23.73;15.30;;;;;;;-0.76;83.26;97760.19;5077795;28;20037;-94
2022/01/09 06:12:36;;;;;;;22.40;14.07;;;;;;;-0.91;83.05;97727.09;5077656;28;20054;-94
2022/01/09 06:21:45;;;;;;;19.40;12.98;;;;;;;-0.44;83.16;97741.06;5097107;28;20084;-93
2022/01/09 06:24:11;;;;;;;22.55;13.68;;;;;;;-0.38;82.73;97738.44;5097926;28;20052;-93
2022/01/09 06:26:42;;;;;;;22.60;13.57;;;;;;;-0.45;82.96;97721.06;5098515;28;20056;-92
2022/01/09 06:29:10;;;;;;;22.33;12.95;;;;;;;-0.39;82.97;97723.66;5098311;28;20056;-95
2022/01/09 06:34:58;;;;;;;23.20;13.35;;;;;;;-0.10;83.19;97746.28;5097268;28;20465;-93
2022/01/09 06:37:25;;;;;;;20.50;12.60;;;;;;;0.04;83.07;97723.59;5096619;28;20047;-95
2022/01/09 06:39:51;;;;;;;19.35;12.20;;;;;;;0.06;82.73;97672.19;5097377;28;20498;-94
2022/01/09 06:42:17;;;;;;;15.23;10.32;;;;;;;0.18;82.10;97651.22;5096096;28;20048;-94
2022/01/09 06:44:45;;;;;;;22.77;14.38;;;;;;;-0.17;82.79;97661.81;5097992;28;20631;-94
2022/01/09 06:50:33;;;;;;;22.70;14.10;;;;;;;-0.37;83.67;97679.25;5076946;28;20041;-94
2022/01/09 06:52:59;;;;;;;20.15;12.77;;;;;;;-0.43;85.91;97677.53;5076479;28;20079;-93
2022/01/09 06:55:25;;;;;;;20.70;13.00;;;;;;;-0.15;86.36;97712.31;5075963;28;20052;-93
2022/01/09 06:57:53;;;;;;;25.00;15.32;;;;;;;-0.11;86.25;97689.63;5076250;28;20048;-95
2022/01/09 07:03:44;;;;;;;28.25;15.40;;;;;;;-0.38;87.11;97661.84;5076230;28;20033;-93
2022/01/09 07:06:11;;;;;;;26.75;14.68;;;;;;;-0.35;87.54;97678.34;5076203;28;20044;-93
2022/01/09 07:08:37;;;;;;;22.83;15.45;;;;;;;-0.18;88.27;97694.00;5076633;28;20381;-93
2022/01/09 07:11:04;;;;;;;23.52;14.13;;;;;;;-0.06;88.47;97700.97;5075878;28;20131;-93
2022/01/09 07:13:30;;;;;;;26.88;14.88;;;;;;;-0.19;88.02;97668.78;5076331;28;20041;-94
2022/01/09 07:15:56;;;;;;;26.23;15.95;;;;;;;-0.26;87.47;97667.91;5076665;28;20044;-93
2022/01/09 07:18:23;;;;;;;23.27;14.05;;;;;;;-0.23;86.84;97662.66;5076761;28;20037;-94
2022/01/09 07:20:51;;;;;;;23.48;14.02;;;;;;;-0.20;86.83;97659.19;5075820;28;20136;-93
2022/01/09 07:23:17;;;;;;;26.52;13.65;;;;;;;-0.05;85.59;97648.69;5076362;28;20052;-93
2022/01/09 07:25:43;;;;;;;25.13;15.10;;;;;;;-0.25;87.45;97638.28;5076085;28;20084;-94
2022/01/09 07:28:09;;;;;;;23.13;13.20;;;;;;;-0.22;88.11;97643.53;5076248;28;20040;-94
2022/01/09 07:34:43;;;;;;;21.70;12.52;;;;;;;0.18;87.31;97645.13;5084660;28;20021;-93
2022/01/09 07:37:12;;;;;;;18.42;10.15;;;;;;;0.27;85.36;97600.66;5081369;28;20055;-94
2022/01/09 07:39:38;;;;;;;18.17;11.80;;;;;;;0.25;82.25;97612.84;5082332;28;20045;-95
2022/01/09 07:42:05;;;;;;;17.77;10.93;;;;;;;0.29;83.66;97616.34;5084236;28;20482;-96
2022/01/09 07:44:31;;;;;;;34.35;21.80;;;;;;;0.36;85.55;97625.88;5080515;28;20102;-93
2022/01/09 07:50:19;;;;;;;13.98;9.02;;;;;;;0.68;82.10;97656.25;5078481;28;20531;-95
2022/01/09 07:52:47;;;;;;;13.18;8.07;;;;;;;0.62;82.53;97649.28;5078531;28;20074;-94
2022/01/09 07:55:14;;;;;;;21.15;13.30;;;;;;;0.64;83.84;97644.03;5078197;28;20044;-93
2022/01/09 07:57:40;;;;;;;21.48;12.98;;;;;;;0.77;85.44;97664.88;5079760;28;20041;-94
2022/01/09 08:06:50;;;;;;;25.83;15.00;;;;;;;0.87;85.98;97654.34;5097011;28;20035;-94
2022/01/09 08:09:18;;;;;;;25.00;16.33;;;;;;;0.79;86.60;97644.81;5098777;28;20024;-95
2022/01/09 08:11:45;;;;;;;32.47;17.98;;;;;;;0.73;85.75;97629.16;5097988;28;20046;-92
2022/01/09 08:14:10;;;;;;;27.90;15.18;;;;;;;0.69;86.72;97632.66;5098061;28;20044;-93
2022/01/09 08:20:03;;;;;;;32.03;19.55;;;;;;;0.86;87.57;97629.94;5076467;28;20064;-93
2022/01/09 08:22:29;;;;;;;24.77;14.43;;;;;;;0.90;86.22;97609.84;5077572;28;20029;-94
2022/01/09 08:24:57;;;;;;;20.38;13.68;;;;;;;1.06;83.50;97636.78;5077475;28;20056;-93
2022/01/09 08:27:23;;;;;;;25.17;16.42;;;;;;;1.17;85.04;97648.03;5076489;28;20063;-93
2022/01/09 08:29:49;;;;;;;24.08;14.90;;;;;;;1.20;85.93;97612.22;5075970;28;20036;-93
2022/01/09 08:35:37;;;;;;;15.70;9.90;;;;;;;1.25;82.42;97577.28;5077387;28;20029;-93
2022/01/09 08:38:03;;;;;;;54.90;26.55;;;;;;;1.46;83.87;97590.19;5077015;28;20138;-93
2022/01/09 08:40:31;;;;;;;16.83;10.93;;;;;;;1.38;80.26;97598.09;5084134;28;20043;-93
2022/01/09 08:42:57;;;;;;;18.63;11.27;;;;;;;1.43;80.08;97587.56;5097043;28;20355;-93
2022/01/09 08:49:37;;;;;;;23.55;15.05;;;;;;;1.20;77.67;97599.13;5096461;28;20032;-93
2022/01/09 08:52:03;;;;;;;18.92;11.48;;;;;;;0.96;76.89;97560.94;5096651;28;20040;-93
2022/01/09 08:54:29;;;;;;;22.10;12.68;;;;;;;1.07;76.25;97591.41;5097686;28;20036;-93
2022/01/09 08:56:57;;;;;;;20.17;12.60;;;;;;;1.03;75.67;97575.72;5097836;28;20044;-94
2022/01/09 08:59:23;;;;;;;22.17;11.98;;;;;;;1.26;76.51;97602.56;5096981;28;20044;-94
2022/01/09 09:05:13;;;;;;;21.65;12.25;;;;;;;1.19;76.13;97547.66;5078831;28;20029;-94
2022/01/09 09:07:39;;;;;;;21.07;12.50;;;;;;;1.33;74.63;97539.66;5083680;28;20040;-95
2022/01/09 09:10:06;;;;;;;16.27;9.52;;;;;;;1.54;73.29;97548.16;5081753;28;20064;-92
2022/01/09 09:12:36;;;;;;;14.90;10.05;;;;;;;1.62;73.05;97534.09;5100729;28;20043;-93
2022/01/09 09:21:46;;;;;;;14.32;8.73;;;;;;;2.22;72.43;97546.47;5100695;28;20585;-94
2022/01/09 09:24:13;;;;;;;22.20;13.45;;;;;;;2.24;72.76;97534.19;5101299;28;20109;-93
2022/01/09 09:26:39;;;;;;;11.52;7.40;;;;;;;2.19;68.13;97491.44;5101021;28;20075;-93
2022/01/09 09:29:07;;;;;;;43.70;19.42;;;;;;;2.48;66.77;97526.88;5100729;28;20127;-94
2022/01/09 09:38:16;;;;;;;12.57;7.20;;;;;;;2.57;63.45;97455.88;5080807;28;20036;-94
2022/01/09 09:40:42;;;;;;;17.88;11.68;;;;;;;2.59;64.15;97459.34;5081400;28;20048;-93
2022/01/09 09:43:08;;;;;;;23.23;15.55;;;;;;;2.64;64.16;97467.13;5081422;28;20040;-95
2022/01/09 09:48:59;;;;;;;14.00;9.27;;;;;;;2.61;64.15;97433.06;5092993;28;20052;-94
2022/01/09 09:51:25;;;;;;;24.83;12.93;;;;;;;2.66;64.01;97426.84;5101052;28;20047;-93
2022/01/09 09:53:52;;;;;;;18.23;10.93;;;;;;;2.82;64.58;97421.31;5102243;28;20044;-94
2022/01/09 09:56:18;;;;;;;14.65;9.00;;;;;;;2.78;64.58;97409.16;5104913;28;20044;-93
2022/01/09 09:58:49;;;;;;;16.73;10.15;;;;;;;2.78;64.32;97396.91;5102480;28;20100;-94
2022/01/09 10:04:55;;;;;;;21.48;12.88;;;;;;;2.96;64.97;97405.31;5106613;28;20055;-94
2022/01/09 10:07:23;;;;;;;21.98;11.77;;;;;;;2.83;65.13;97395.03;5108402;28;20055;-94
2022/01/09 10:09:53;;;;;;;21.80;14.23;;;;;;;2.81;66.45;97407.34;5106620;28;20036;-94
2022/01/09 10:12:23;;;;;;;22.27;14.30;;;;;;;2.65;67.94;97377.03;5106264;28;20043;-94
2022/01/09 10:14:53;;;;;;;23.65;15.23;;;;;;;2.53;67.80;97374.59;5102946;28;20104;-95
2022/01/09 10:20:42;;;;;;;16.20;10.32;;;;;;;2.38;68.13;97365.22;5098555;28;20087;-94
2022/01/09 10:23:09;;;;;;;28.75;16.00;;;;;;;2.58;69.86;97378.88;5104279;28;20505;-96
2022/01/09 10:25:39;;;;;;;13.77;9.57;;;;;;;2.36;70.29;97346.03;5105258;28;20138;-94
2022/01/09 10:28:07;;;;;;;26.77;14.98;;;;;;;2.61;72.34;97375.34;5102315;28;20065;-94
2022/01/09 10:30:36;;;;;;;17.05;10.77;;;;;;;2.29;74.01;97339.16;5102019;28;20036;-94
2022/01/09 10:33:05;;;;;;;16.80;10.48;;;;;;;2.26;73.56;97369.81;5102226;28;20040;-93
2022/01/09 10:35:32;;;;;;;12.98;9.23;;;;;;;2.09;75.81;97331.66;5103667;28;20048;-95
2022/01/09 10:38:07;;;;;;;16.63;11.43;;;;;;;2.24;76.74;97337.47;5103408;28;20044;-95
2022/01/09 10:40:36;;;;;;;15.15;8.60;;;;;;;2.20;78.72;97334.94;5104916;28;20046;-96
2022/01/09 10:43:39;;;;;;;14.10;8.57;;;;;;;2.30;77.88;97378.50;5105568;28;20055;-96
2022/01/09 10:49:39;;;;;;;13.65;8.35;;;;;;;2.07;80.84;97372.75;5105664;28;20060;-95
2022/01/09 10:52:16;;;;;;;14.55;9.30;;;;;;;2.19;80.33;97391.78;5104165;28;20101;-95
2022/01/09 10:54:46;;;;;;;13.40;8.45;;;;;;;2.04;82.62;97382.41;5105161;28;20055;-95
2022/01/09 10:57:16;;;;;;;14.15;7.82;;;;;;;2.02;82.61;97383.31;5105661;28;20075;-96
2022/01/09 10:59:42;;;;;;;;;;;;;;;1.99;84.27;97402.56;5103438;28;20097;-93
2022/01/09 11:05:30;;;;;;;15.82;9.57;;;;;;;1.48;89.60;97372.75;5095912;28;20027;-91
2022/01/09 11:07:56;;;;;;;22.23;14.10;;;;;;;1.32;92.53;97378.16;5097336;28;20119;-92
2022/01/09 11:10:23;;;;;;;15.32;8.50;;;;;;;1.29;94.46;97366.88;5097555;28;20036;-92
2022/01/09 11:12:52;;;;;;;10.85;7.95;;;;;;;1.26;96.28;97356.41;5097124;28;20055;-93
2022/01/09 11:19:33;;;;;;;9.13;5.95;;;;;;;1.47;98.62;97340.41;5079334;28;20123;-94
2022/01/09 11:22:01;;;;;;;9.30;5.45;;;;;;;1.57;98.34;97301.88;5076940;28;20044;-94
2022/01/09 11:24:52;;;;;;;13.07;8.45;;;;;;;1.55;97.92;97285.31;5077630;28;20091;-94
2022/01/09 11:27:27;;;;;;;20.20;10.82;;;;;;;1.42;98.56;97279.38;5076848;28;20102;-94
2022/01/09 11:36:37;;;;;;;19.63;12.07;;;;;;;1.54;99.05;97294.03;5019092;28;20044;-95
2022/01/09 11:39:12;;;;;;;20.77;13.07;;;;;;;1.60;99.18;97293.94;5016210;28;20034;-93
2022/01/09 11:41:39;;;;;;;23.17;13.50;;;;;;;1.46;98.49;97261.88;5036708;28;20045;-95
2022/01/09 11:44:09;;;;;;;18.17;11.30;;;;;;;1.57;98.43;97260.81;5036749;28;20329;-93
2022/01/09 11:46:58;;;;;;;23.75;13.60;;;;;;;1.66;98.58;97259.78;5036465;28;20042;-94
2022/01/09 11:49:24;;;;;;;;;;;;;;;1.49;99.63;97267.91;5037461;28;20048;-94
2022/01/09 11:51:51;;;;;;;26.95;16.08;;;;;;;1.37;100.00;97263.75;5037325;28;20007;-95
2022/01/09 11:54:19;;;;;;;22.90;13.30;;;;;;;1.27;100.00;97229.84;5039285;28;20045;-95
2022/01/09 11:57:03;;;;;;;20.67;13.98;;;;;;;1.36;100.00;97220.09;5043466;28;20072;-94
2022/01/09 11:59:33;;;;;;;34.63;21.45;;;;;;;1.47;100.00;97205.97;5063631;28;20090;-96
2022/01/09 12:05:20;;;;;;;21.67;12.80;;;;;;;1.74;99.42;97223.84;5061226;28;20036;-95
2022/01/09 12:08:05;;;;;;;31.38;16.30;;;;;;;1.55;100.00;97193.63;5060600;28;20041;-96
2022/01/09 12:10:51;;;;;;;21.02;13.00;;;;;;;1.78;98.49;97194.09;5061926;28;20041;-94
2022/01/09 12:13:43;;;;;;;22.00;12.18;;;;;;;1.86;98.42;97193.94;5058635;28;20049;-95
2022/01/09 12:20:03;;;;;;;32.70;19.35;;;;;;;1.89;99.58;97203.50;5056633;28;20044;-93
2022/01/09 12:23:00;;;;;;;22.52;12.57;;;;;;;1.78;99.22;97177.50;5056655;28;20056;-95
2022/01/09 12:25:42;;;;;;;20.52;11.15;;;;;;;1.92;98.95;97190.34;5059066;28;20095;-96
2022/01/09 12:28:09;;;;;;;20.45;11.45;;;;;;;2.02;99.98;97207.66;5057231;28;20051;-94
2022/01/09 12:33:59;;;;;;;27.95;16.52;;;;;;;1.85;100.00;97200.09;5060893;28;20044;-95
2022/01/09 12:36:32;;;;;;;25.48;15.77;;;;;;;1.75;100.00;97195.88;5077042;28;20072;-95
2022/01/09 12:39:02;;;;;;;32.15;20.45;;;;;;;1.66;100.00;97181.19;5077592;28;20050;-93
2022/01/09 12:41:30;;;;;;;57.22;32.40;;;;;;;1.73;100.00;97193.28;5082222;28;20040;-94
2022/01/09 12:44:00;;;;;;;40.60;21.38;;;;;;;1.72;100.00;97191.56;5080996;28;20524;-94
2022/01/09 12:46:28;;;;;;;41.70;23.50;;;;;;;1.77;100.00;97207.22;5080883;28;20045;-95
2022/01/09 12:48:56;;;;;;;52.17;31.38;;;;;;;1.85;100.00;97211.44;5080788;28;20454;-93
2022/01/09 12:51:23;;;;;;;38.28;23.35;;;;;;;1.91;100.00;97217.44;5082708;28;20024;-92
2022/01/09 12:53:52;;;;;;;24.80;16.98;;;;;;;1.82;100.00;97198.38;5080301;28;20164;-92
2022/01/09 12:56:20;;;;;;;27.77;16.92;;;;;;;1.87;100.00;97197.44;5079320;28;20072;-93
2022/01/09 12:58:48;;;;;;;31.98;20.50;;;;;;;1.83;100.00;97194.88;5079507;28;20125;-95
2022/01/09 13:04:36;;;;;;;34.85;20.75;;;;;;;1.18;100.00;97175.88;5079437;28;20028;-91
2022/01/09 13:07:03;;;;;;;41.78;26.17;;;;;;;1.05;100.00;97166.47;5080778;28;20081;-91
2022/01/09 13:09:31;;;;;;;37.47;21.38;;;;;;;1.17;100.00;97188.09;5079570;28;20045;-96
2022/01/09 13:11:59;;;;;;;35.90;21.30;;;;;;;1.14;100.00;97166.34;5080142;28;20496;-92
2022/01/09 13:14:25;;;;;;;31.58;17.65;;;;;;;1.10;100.00;97170.75;5081956;28;20094;-95
2022/01/09 13:20:17;;;;;;;29.05;18.52;;;;;;;1.02;100.00;97173.50;5086079;28;20109;-93
2022/01/09 13:22:43;;;;;;;;;;;;;;;1.28;100.00;97206.28;5102800;28;20040;-92
2022/01/09 13:25:12;;;;;;;25.05;14.18;;;;;;;1.30;100.00;97194.03;5102586;28;20004;-93
2022/01/09 13:27:38;;;;;;;28.55;16.80;;;;;;;1.27;100.00;97198.44;5109444;28;20036;-95
2022/01/09 13:36:51;;;;;;;15.05;9.30;;;;;;;1.26;100.00;97207.16;5109471;28;20027;-93
2022/01/09 13:39:20;;;;;;;11.95;7.25;;;;;;;1.29;100.00;97207.97;5110113;28;20409;-93
2022/01/09 13:41:49;;;;;;;12.00;7.50;;;;;;;1.12;100.00;97204.75;5108034;28;20034;-93
2022/01/09 13:44:20;;;;;;;13.68;8.60;;;;;;;1.13;100.00;97219.56;5109908;28;20076;-92
2022/01/09 13:50:12;;;;;;;40.22;18.27;;;;;;;1.08;100.00;97219.63;5086152;28;20036;-93
2022/01/09 13:52:38;;;;;;;14.20;8.88;;;;;;;0.95;100.00;97218.94;5101104;28;20097;-93
2022/01/09 13:55:06;;;;;;;19.95;11.30;;;;;;;0.98;100.00;97229.38;5107558;28;20040;-92
2022/01/09 13:57:46;;;;;;;20.52;12.27;;;;;;;0.67;100.00;97199.28;5108193;28;20036;-90
2022/01/09 14:03:34;;;;;;;27.98;15.38;;;;;;;0.66;100.00;97214.09;5102059;28;20035;-92
2022/01/09 14:06:00;;;;;;;22.40;13.48;;;;;;;0.67;100.00;97220.19;5099843;28;20050;-92
2022/01/09 14:08:33;;;;;;;25.98;15.35;;;;;;;0.59;100.00;97195.00;5095270;28;20124;-91
2022/01/09 14:11:05;;;;;;;20.73;12.00;;;;;;;0.75;100.00;97231.44;5088558;28;20040;-91
2022/01/09 14:13:38;;;;;;;19.30;10.77;;;;;;;0.65;100.00;97220.25;5100422;28;20552;-93
2022/01/09 14:38:32;;;;;;;16.35;8.77;;;;;;;0.95;100.00;97239.00;5092584;28;20063;-94
2022/01/09 14:41:00;;;;;;;15.63;10.38;;;;;;;0.89;100.00;97224.28;5100312;28;20044;-92
2022/01/09 14:43:28;;;;;;;14.32;8.88;;;;;;;0.90;100.00;97215.53;5092377;28;20127;-91
2022/01/09 14:49:31;;;;;;;16.90;10.30;;;;;;;0.87;100.00;97231.28;5099221;28;20046;-91
2022/01/09 14:51:58;;;;;;;14.20;8.10;;;;;;;0.91;100.00;97240.84;5087781;28;20036;-94
2022/01/09 14:54:25;;;;;;;13.57;8.15;;;;;;;0.98;100.00;97252.94;5106768;28;20039;-92
2022/01/09 14:56:51;;;;;;;18.75;10.70;;;;;;;0.93;100.00;97256.50;5108952;28;20044;-93
2022/01/09 14:59:17;;;;;;;19.00;9.70;;;;;;;0.85;100.00;97246.13;5107002;28;20074;-93
2022/01/09 15:05:05;;;;;;;20.98;11.18;;;;;;;0.82;100.00;97265.38;5110737;28;20114;-94
2022/01/09 15:07:31;;;;;;;18.67;10.23;;;;;;;0.79;100.00;97259.28;5111127;28;20060;-94
2022/01/09 15:10:06;;;;;;;27.17;11.95;;;;;;;0.84;100.00;97269.69;5109548;28;20066;-94
2022/01/09 15:12:32;;;;;;;14.07;8.93;;;;;;;0.82;100.00;97252.28;5110596;28;20501;-94
2022/01/09 15:14:59;;;;;;;17.42;10.27;;;;;;;0.75;100.00;97236.66;5110259;28;20536;-95
2022/01/09 15:20:49;;;;;;;10.77;6.53;;;;;;;0.94;100.00;97268.72;5109094;28;20040;-93
2022/01/09 15:23:16;;;;;;;14.68;8.85;;;;;;;0.84;100.00;97247.00;5109121;28;20100;-95
2022/01/09 15:25:47;;;;;;;13.52;8.30;;;;;;;0.95;100.00;97278.28;5108730;28;20099;-94